Southwood, Indiana
Current Conditions -  °F | °C
As of 2:02 PM on Sunday 23 Nov 2014 (Local Time) from KHUF Reporting Station
Light Rain Light Rain  
Wind Chill: 52°   Ceiling: 600
Heat Index: 52°   Visibility: 3mi
Dew Point: 50°   Wind: 10mph
Humidity: 93%   Direction: 140°SE
Pressure: 29.6"   Gusts: NA
Location:  39.3587°N, 87.4056°W
Report Text: KHUF 231902Z 14009KT 3SM -RA BR BKN006 OVC013 11/10 A2960 RMK AO2 P0000 T01110100
Loading
Personal Weather Stations






























Interactive Weather Map New forecast layout! Learn more

10-Day Weather Forecast

Advertisements
Track Severe Weather on mobile